Belknap, Illinois
Current Conditions -  °F | °C
As of 8:15 AM on Tuesday 27 Jan 2015 (Local Time) from KM30 Reporting Station
Haze Haze  
Wind Chill: 35°   Ceiling: 1500
Heat Index: 35°   Visibility: 5mi
Dew Point: 35°   Wind: 3mph
Humidity: 100%   Direction: 280°W
Pressure: 30.07"   Gusts: NA
Location:  37.33°N, 88.94°W
Report Text: KM30 271415Z AUTO 28003KT 5SM BR BKN015 02/02 A3007 RMK AO2 T00150015
Loading
Personal Weather Stations






























Interactive Weather Map New forecast layout! Learn more

10-Day Weather Forecast

Advertisements
Track Severe Weather on mobile